sensor_id;sensor_type;location;lat;lon;timestamp;temperature;humidity
49184;DHT22;35021;49.214;12.270;2023-09-19T00:00:44;22.00;62.70
49184;DHT22;35021;49.214;12.270;2023-09-19T00:03:14;22.00;62.70
49184;DHT22;35021;49.214;12.270;2023-09-19T00:05:41;21.90;62.70
49184;DHT22;35021;49.214;12.270;2023-09-19T00:08:12;22.00;62.70
49184;DHT22;35021;49.214;12.270;2023-09-19T00:10:40;22.00;62.70
49184;DHT22;35021;49.214;12.270;2023-09-19T00:13:09;22.00;62.70
49184;DHT22;35021;49.214;12.270;2023-09-19T00:15:42;22.00;62.70
49184;DHT22;35021;49.214;12.270;2023-09-19T00:18:09;22.00;62.70
49184;DHT22;35021;49.214;12.270;2023-09-19T00:20:37;22.00;62.70
49184;DHT22;35021;49.214;12.270;2023-09-19T00:23:05;22.00;62.70
49184;DHT22;35021;49.214;12.270;2023-09-19T00:25:33;21.90;62.60
49184;DHT22;35021;49.214;12.270;2023-09-19T00:28:02;21.90;62.70
49184;DHT22;35021;49.214;12.270;2023-09-19T00:30:29;22.00;62.70
49184;DHT22;35021;49.214;12.270;2023-09-19T00:32:56;21.90;62.70
49184;DHT22;35021;49.214;12.270;2023-09-19T00:35:23;21.90;62.60
49184;DHT22;35021;49.214;12.270;2023-09-19T00:37:52;21.90;62.70
49184;DHT22;35021;49.214;12.270;2023-09-19T00:40:19;21.90;62.70
49184;DHT22;35021;49.214;12.270;2023-09-19T00:42:49;21.90;62.60
49184;DHT22;35021;49.214;12.270;2023-09-19T00:45:17;21.90;62.70
49184;DHT22;35021;49.214;12.270;2023-09-19T00:47:48;21.90;62.70
49184;DHT22;35021;49.214;12.270;2023-09-19T00:50:18;21.90;62.70
49184;DHT22;35021;49.214;12.270;2023-09-19T00:52:49;21.90;62.70
49184;DHT22;35021;49.214;12.270;2023-09-19T00:55:17;21.90;62.70
49184;DHT22;35021;49.214;12.270;2023-09-19T00:57:47;21.90;62.60
49184;DHT22;35021;49.214;12.270;2023-09-19T01:00:16;21.90;62.60
49184;DHT22;35021;49.214;12.270;2023-09-19T01:02:47;21.90;62.60
49184;DHT22;35021;49.214;12.270;2023-09-19T01:05:15;21.90;62.60
49184;DHT22;35021;49.214;12.270;2023-09-19T01:07:42;21.90;62.70
49184;DHT22;35021;49.214;12.270;2023-09-19T01:10:17;21.90;62.70
49184;DHT22;35021;49.214;12.270;2023-09-19T01:12:54;21.90;62.70
49184;DHT22;35021;49.214;12.270;2023-09-19T01:18:27;21.90;62.70
49184;DHT22;35021;49.214;12.270;2023-09-19T01:21:15;21.90;62.70
49184;DHT22;35021;49.214;12.270;2023-09-19T01:27:17;22.00;62.80
49184;DHT22;35021;49.214;12.270;2023-09-19T01:29:52;21.90;62.80
49184;DHT22;35021;49.214;12.270;2023-09-19T01:32:21;21.90;62.80
49184;DHT22;35021;49.214;12.270;2023-09-19T01:34:55;21.90;62.80
49184;DHT22;35021;49.214;12.270;2023-09-19T01:37:24;21.90;62.80
49184;DHT22;35021;49.214;12.270;2023-09-19T01:40:05;21.90;62.80
49184;DHT22;35021;49.214;12.270;2023-09-19T01:43:06;21.90;62.80
49184;DHT22;35021;49.214;12.270;2023-09-19T01:45:46;21.90;62.80
49184;DHT22;35021;49.214;12.270;2023-09-19T01:48:40;21.90;62.80
49184;DHT22;35021;49.214;12.270;2023-09-19T01:51:10;21.90;62.80
49184;DHT22;35021;49.214;12.270;2023-09-19T01:53:54;21.90;62.80
49184;DHT22;35021;49.214;12.270;2023-09-19T01:56:30;21.90;62.90
49184;DHT22;35021;49.214;12.270;2023-09-19T01:59:04;21.90;62.90
49184;DHT22;35021;49.214;12.270;2023-09-19T02:01:34;21.90;62.90
49184;DHT22;35021;49.214;12.270;2023-09-19T02:04:02;21.90;62.90
49184;DHT22;35021;49.214;12.270;2023-09-19T02:06:29;21.90;63.60
49184;DHT22;35021;49.214;12.270;2023-09-19T02:08:56;21.90;62.90
49184;DHT22;35021;49.214;12.270;2023-09-19T02:11:23;21.90;62.90
49184;DHT22;35021;49.214;12.270;2023-09-19T02:13:50;21.90;62.90
49184;DHT22;35021;49.214;12.270;2023-09-19T02:16:21;21.90;62.90
49184;DHT22;35021;49.214;12.270;2023-09-19T02:18:49;21.90;62.90
49184;DHT22;35021;49.214;12.270;2023-09-19T02:21:18;21.90;62.90
49184;DHT22;35021;49.214;12.270;2023-09-19T02:23:45;21.90;62.80
49184;DHT22;35021;49.214;12.270;2023-09-19T02:26:14;21.90;62.90
49184;DHT22;35021;49.214;12.270;2023-09-19T02:28:41;21.90;62.80
49184;DHT22;35021;49.214;12.270;2023-09-19T02:31:08;21.90;62.80
49184;DHT22;35021;49.214;12.270;2023-09-19T02:33:34;21.90;62.80
49184;DHT22;35021;49.214;12.270;2023-09-19T02:36:02;21.90;62.80
49184;DHT22;35021;49.214;12.270;2023-09-19T02:38:30;21.90;62.80
49184;DHT22;35021;49.214;12.270;2023-09-19T02:40:57;21.90;62.80
49184;DHT22;35021;49.214;12.270;2023-09-19T02:43:24;21.90;62.80
49184;DHT22;35021;49.214;12.270;2023-09-19T02:45:51;21.90;62.80
49184;DHT22;35021;49.214;12.270;2023-09-19T02:48:21;21.90;62.90
49184;DHT22;35021;49.214;12.270;2023-09-19T02:50:52;21.90;62.80
49184;DHT22;35021;49.214;12.270;2023-09-19T02:53:19;21.90;62.80
49184;DHT22;35021;49.214;12.270;2023-09-19T02:55:47;21.90;62.80
49184;DHT22;35021;49.214;12.270;2023-09-19T02:58:14;21.90;62.80
49184;DHT22;35021;49.214;12.270;2023-09-19T03:00:42;21.90;62.80
49184;DHT22;35021;49.214;12.270;2023-09-19T03:03:09;21.90;63.50
49184;DHT22;35021;49.214;12.270;2023-09-19T03:05:36;21.90;62.80
49184;DHT22;35021;49.214;12.270;2023-09-19T03:08:05;21.90;62.80
49184;DHT22;35021;49.214;12.270;2023-09-19T03:10:33;21.90;62.80
49184;DHT22;35021;49.214;12.270;2023-09-19T03:12:59;21.90;62.80
49184;DHT22;35021;49.214;12.270;2023-09-19T03:15:26;21.90;62.80
49184;DHT22;35021;49.214;12.270;2023-09-19T03:17:53;21.80;62.80
49184;DHT22;35021;49.214;12.270;2023-09-19T03:20:21;21.80;62.90
49184;DHT22;35021;49.214;12.270;2023-09-19T03:22:48;21.80;63.10
49184;DHT22;35021;49.214;12.270;2023-09-19T03:25:15;21.80;63.10
49184;DHT22;35021;49.214;12.270;2023-09-19T03:27:43;21.70;63.20
49184;DHT22;35021;49.214;12.270;2023-09-19T03:30:10;21.70;63.30
49184;DHT22;35021;49.214;12.270;2023-09-19T03:32:44;21.70;63.40
49184;DHT22;35021;49.214;12.270;2023-09-19T03:35:12;21.70;63.40
49184;DHT22;35021;49.214;12.270;2023-09-19T03:37:42;21.70;63.50
49184;DHT22;35021;49.214;12.270;2023-09-19T03:40:10;21.70;63.40
49184;DHT22;35021;49.214;12.270;2023-09-19T03:42:41;21.60;63.40
49184;DHT22;35021;49.214;12.270;2023-09-19T03:45:08;21.70;63.50
49184;DHT22;35021;49.214;12.270;2023-09-19T03:47:43;21.70;63.50
49184;DHT22;35021;49.214;12.270;2023-09-19T03:50:10;21.60;63.40
49184;DHT22;35021;49.214;12.270;2023-09-19T03:52:44;21.60;63.50
49184;DHT22;35021;49.214;12.270;2023-09-19T03:55:12;21.60;63.50
49184;DHT22;35021;49.214;12.270;2023-09-19T03:57:39;21.60;63.50
49184;DHT22;35021;49.214;12.270;2023-09-19T04:00:06;21.60;63.60
49184;DHT22;35021;49.214;12.270;2023-09-19T04:02:39;21.60;63.60
49184;DHT22;35021;49.214;12.270;2023-09-19T04:05:07;21.60;63.60
49184;DHT22;35021;49.214;12.270;2023-09-19T04:07:34;21.60;63.60
49184;DHT22;35021;49.214;12.270;2023-09-19T04:10:01;21.60;63.60
49184;DHT22;35021;49.214;12.270;2023-09-19T04:12:30;21.60;63.60
49184;DHT22;35021;49.214;12.270;2023-09-19T04:14:57;21.60;63.60
49184;DHT22;35021;49.214;12.270;2023-09-19T04:17:24;21.60;63.50
49184;DHT22;35021;49.214;12.270;2023-09-19T04:19:51;21.60;63.60
49184;DHT22;35021;49.214;12.270;2023-09-19T04:22:18;21.60;63.60
49184;DHT22;35021;49.214;12.270;2023-09-19T04:24:45;21.60;63.60
49184;DHT22;35021;49.214;12.270;2023-09-19T04:27:12;21.70;63.60
49184;DHT22;35021;49.214;12.270;2023-09-19T04:29:41;21.70;63.60
49184;DHT22;35021;49.214;12.270;2023-09-19T04:32:08;21.70;64.20
49184;DHT22;35021;49.214;12.270;2023-09-19T04:34:36;21.70;63.40
49184;DHT22;35021;49.214;12.270;2023-09-19T04:37:05;21.70;63.30
49184;DHT22;35021;49.214;12.270;2023-09-19T04:39:32;21.70;63.30
49184;DHT22;35021;49.214;12.270;2023-09-19T04:42:00;21.70;63.20
49184;DHT22;35021;49.214;12.270;2023-09-19T04:44:28;21.70;63.20
49184;DHT22;35021;49.214;12.270;2023-09-19T04:46:55;21.70;63.10
49184;DHT22;35021;49.214;12.270;2023-09-19T04:49:22;21.70;63.10
49184;DHT22;35021;49.214;12.270;2023-09-19T04:51:49;21.70;63.00
49184;DHT22;35021;49.214;12.270;2023-09-19T04:54:16;21.80;63.10
49184;DHT22;35021;49.214;12.270;2023-09-19T04:56:44;21.80;63.10
49184;DHT22;35021;49.214;12.270;2023-09-19T04:59:11;21.80;63.10
49184;DHT22;35021;49.214;12.270;2023-09-19T05:01:38;21.80;63.00
49184;DHT22;35021;49.214;12.270;2023-09-19T05:04:05;21.80;63.00
49184;DHT22;35021;49.214;12.270;2023-09-19T05:06:32;21.80;63.00
49184;DHT22;35021;49.214;12.270;2023-09-19T05:09:00;21.80;62.90
49184;DHT22;35021;49.214;12.270;2023-09-19T05:11:27;21.80;62.90
49184;DHT22;35021;49.214;12.270;2023-09-19T05:13:57;21.80;62.80
49184;DHT22;35021;49.214;12.270;2023-09-19T05:16:24;21.80;62.80
49184;DHT22;35021;49.214;12.270;2023-09-19T05:18:51;21.80;62.70
49184;DHT22;35021;49.214;12.270;2023-09-19T05:21:18;21.80;62.70
49184;DHT22;35021;49.214;12.270;2023-09-19T05:23:45;21.80;62.70
49184;DHT22;35021;49.214;12.270;2023-09-19T05:26:13;21.80;62.70
49184;DHT22;35021;49.214;12.270;2023-09-19T05:28:42;21.80;62.70
49184;DHT22;35021;49.214;12.270;2023-09-19T05:31:10;21.80;62.70
49184;DHT22;35021;49.214;12.270;2023-09-19T05:33:37;21.80;62.60
49184;DHT22;35021;49.214;12.270;2023-09-19T05:36:04;21.80;62.70
49184;DHT22;35021;49.214;12.270;2023-09-19T05:38:31;21.80;62.70
49184;DHT22;35021;49.214;12.270;2023-09-19T05:40:59;21.80;62.70
49184;DHT22;35021;49.214;12.270;2023-09-19T05:43:26;21.80;62.70
49184;DHT22;35021;49.214;12.270;2023-09-19T05:45:53;21.80;62.60
49184;DHT22;35021;49.214;12.270;2023-09-19T05:48:23;21.80;62.60
49184;DHT22;35021;49.214;12.270;2023-09-19T05:50:49;21.80;62.70
49184;DHT22;35021;49.214;12.270;2023-09-19T05:53:16;21.80;62.60
49184;DHT22;35021;49.214;12.270;2023-09-19T05:55:45;21.80;62.60
49184;DHT22;35021;49.214;12.270;2023-09-19T05:58:12;21.80;62.60
49184;DHT22;35021;49.214;12.270;2023-09-19T06:00:41;21.80;62.60
49184;DHT22;35021;49.214;12.270;2023-09-19T06:03:09;21.80;62.60
49184;DHT22;35021;49.214;12.270;2023-09-19T06:05:38;21.80;62.60
49184;DHT22;35021;49.214;12.270;2023-09-19T06:08:06;21.80;62.60
49184;DHT22;35021;49.214;12.270;2023-09-19T06:10:35;21.80;62.60
49184;DHT22;35021;49.214;12.270;2023-09-19T06:13:05;21.80;62.60
49184;DHT22;35021;49.214;12.270;2023-09-19T06:15:33;21.80;62.60
49184;DHT22;35021;49.214;12.270;2023-09-19T06:18:02;21.80;62.60
49184;DHT22;35021;49.214;12.270;2023-09-19T06:20:32;21.80;62.60
49184;DHT22;35021;49.214;12.270;2023-09-19T06:23:00;21.80;62.60
49184;DHT22;35021;49.214;12.270;2023-09-19T06:25:28;21.80;62.60
49184;DHT22;35021;49.214;12.270;2023-09-19T06:27:55;21.80;62.60
49184;DHT22;35021;49.214;12.270;2023-09-19T06:30:23;21.80;62.60
49184;DHT22;35021;49.214;12.270;2023-09-19T06:32:56;21.80;62.60
49184;DHT22;35021;49.214;12.270;2023-09-19T06:35:23;21.80;62.60
49184;DHT22;35021;49.214;12.270;2023-09-19T06:37:52;21.80;62.60
49184;DHT22;35021;49.214;12.270;2023-09-19T06:40:19;21.80;62.60
49184;DHT22;35021;49.214;12.270;2023-09-19T06:42:51;21.80;62.60
49184;DHT22;35021;49.214;12.270;2023-09-19T06:45:19;21.80;62.60
49184;DHT22;35021;49.214;12.270;2023-09-19T06:47:52;21.80;62.60
49184;DHT22;35021;49.214;12.270;2023-09-19T06:50:20;21.80;62.60
49184;DHT22;35021;49.214;12.270;2023-09-19T06:52:53;21.80;62.60
49184;DHT22;35021;49.214;12.270;2023-09-19T06:55:22;21.80;62.60
49184;DHT22;35021;49.214;12.270;2023-09-19T06:57:55;21.80;62.60
49184;DHT22;35021;49.214;12.270;2023-09-19T07:00:23;21.80;62.60
49184;DHT22;35021;49.214;12.270;2023-09-19T07:03:07;21.80;62.70
49184;DHT22;35021;49.214;12.270;2023-09-19T07:05:35;21.80;62.80
49184;DHT22;35021;49.214;12.270;2023-09-19T07:08:07;21.70;62.70
49184;DHT22;35021;49.214;12.270;2023-09-19T07:10:34;21.70;62.80
49184;DHT22;35021;49.214;12.270;2023-09-19T07:13:03;21.70;62.70
49184;DHT22;35021;49.214;12.270;2023-09-19T07:15:33;21.70;62.80
49184;DHT22;35021;49.214;12.270;2023-09-19T07:18:02;21.70;62.90
49184;DHT22;35021;49.214;12.270;2023-09-19T07:20:29;21.70;62.90
49184;DHT22;35021;49.214;12.270;2023-09-19T07:22:59;21.70;62.90
49184;DHT22;35021;49.214;12.270;2023-09-19T07:25:30;21.70;62.90
49184;DHT22;35021;49.214;12.270;2023-09-19T07:27:58;21.70;63.00
49184;DHT22;35021;49.214;12.270;2023-09-19T07:30:28;21.70;62.90
49184;DHT22;35021;49.214;12.270;2023-09-19T07:32:56;21.70;62.90
49184;DHT22;35021;49.214;12.270;2023-09-19T07:35:23;21.60;62.90
49184;DHT22;35021;49.214;12.270;2023-09-19T07:37:50;21.60;63.00
49184;DHT22;35021;49.214;12.270;2023-09-19T07:40:18;21.60;63.00
49184;DHT22;35021;49.214;12.270;2023-09-19T07:42:47;21.60;63.10
49184;DHT22;35021;49.214;12.270;2023-09-19T07:45:14;21.60;63.10
49184;DHT22;35021;49.214;12.270;2023-09-19T07:47:48;21.60;63.20
49184;DHT22;35021;49.214;12.270;2023-09-19T07:50:17;21.60;63.20
49184;DHT22;35021;49.214;12.270;2023-09-19T07:52:46;21.60;63.30
49184;DHT22;35021;49.214;12.270;2023-09-19T07:55:13;21.60;63.30
49184;DHT22;35021;49.214;12.270;2023-09-19T07:57:44;21.50;63.30
49184;DHT22;35021;49.214;12.270;2023-09-19T08:00:11;21.50;63.30
49184;DHT22;35021;49.214;12.270;2023-09-19T08:02:42;21.60;63.30
49184;DHT22;35021;49.214;12.270;2023-09-19T08:05:10;21.60;63.40
49184;DHT22;35021;49.214;12.270;2023-09-19T08:07:39;21.60;63.40
49184;DHT22;35021;49.214;12.270;2023-09-19T08:10:07;21.50;63.30
49184;DHT22;35021;49.214;12.270;2023-09-19T08:12:35;21.60;64.10
49184;DHT22;35021;49.214;12.270;2023-09-19T08:15:17;21.60;63.40
49184;DHT22;35021;49.214;12.270;2023-09-19T08:17:44;21.60;63.40
49184;DHT22;35021;49.214;12.270;2023-09-19T08:20:12;21.60;63.40
49184;DHT22;35021;49.214;12.270;2023-09-19T08:22:53;21.60;63.40
49184;DHT22;35021;49.214;12.270;2023-09-19T08:25:23;21.60;63.40
49184;DHT22;35021;49.214;12.270;2023-09-19T08:27:53;21.60;63.30
49184;DHT22;35021;49.214;12.270;2023-09-19T08:30:22;21.60;63.30
49184;DHT22;35021;49.214;12.270;2023-09-19T08:32:56;21.60;63.30
49184;DHT22;35021;49.214;12.270;2023-09-19T08:35:23;21.60;63.30
49184;DHT22;35021;49.214;12.270;2023-09-19T08:37:50;21.60;63.20
49184;DHT22;35021;49.214;12.270;2023-09-19T08:40:18;21.60;63.10
49184;DHT22;35021;49.214;12.270;2023-09-19T08:42:54;21.70;63.10
49184;DHT22;35021;49.214;12.270;2023-09-19T08:45:22;21.70;63.00
49184;DHT22;35021;49.214;12.270;2023-09-19T08:48:24;21.70;63.10
49184;DHT22;35021;49.214;12.270;2023-09-19T08:51:12;21.70;63.00
49184;DHT22;35021;49.214;12.270;2023-09-19T08:56:17;21.70;62.90
49184;DHT22;35021;49.214;12.270;2023-09-19T08:58:54;21.80;62.90
49184;DHT22;35021;49.214;12.270;2023-09-19T09:01:23;21.80;62.90
49184;DHT22;35021;49.214;12.270;2023-09-19T09:03:53;21.70;62.80
49184;DHT22;35021;49.214;12.270;2023-09-19T09:06:21;21.80;62.80
49184;DHT22;35021;49.214;12.270;2023-09-19T09:08:50;21.80;62.80
49184;DHT22;35021;49.214;12.270;2023-09-19T09:11:18;21.80;62.80
49184;DHT22;35021;49.214;12.270;2023-09-19T09:13:45;21.80;62.70
49184;DHT22;35021;49.214;12.270;2023-09-19T09:16:14;21.80;62.70
49184;DHT22;35021;49.214;12.270;2023-09-19T09:18:45;21.80;62.60
49184;DHT22;35021;49.214;12.270;2023-09-19T09:21:13;21.80;62.50
49184;DHT22;35021;49.214;12.270;2023-09-19T09:23:42;21.80;62.60
49184;DHT22;35021;49.214;12.270;2023-09-19T09:26:09;21.80;62.50
49184;DHT22;35021;49.214;12.270;2023-09-19T09:28:44;21.80;62.50
49184;DHT22;35021;49.214;12.270;2023-09-19T09:31:32;21.80;62.60
49184;DHT22;35021;49.214;12.270;2023-09-19T09:33:59;21.80;62.60
49184;DHT22;35021;49.214;12.270;2023-09-19T09:36:53;21.70;62.60
49184;DHT22;35021;49.214;12.270;2023-09-19T09:39:31;21.70;62.60
49184;DHT22;35021;49.214;12.270;2023-09-19T09:41:59;21.70;62.70
49184;DHT22;35021;49.214;12.270;2023-09-19T09:44:26;21.70;62.70
49184;DHT22;35021;49.214;12.270;2023-09-19T09:46:58;21.70;62.70
49184;DHT22;35021;49.214;12.270;2023-09-19T09:49:47;21.70;62.70
49184;DHT22;35021;49.214;12.270;2023-09-19T09:52:21;21.70;62.70
49184;DHT22;35021;49.214;12.270;2023-09-19T09:55:02;21.70;62.70
49184;DHT22;35021;49.214;12.270;2023-09-19T09:57:33;21.70;62.70
49184;DHT22;35021;49.214;12.270;2023-09-19T10:00:01;21.70;62.70
49184;DHT22;35021;49.214;12.270;2023-09-19T10:02:43;21.70;62.70
49184;DHT22;35021;49.214;12.270;2023-09-19T10:05:17;21.70;62.70
49184;DHT22;35021;49.214;12.270;2023-09-19T10:07:50;21.70;62.80
49184;DHT22;35021;49.214;12.270;2023-09-19T10:10:39;21.70;62.80
49184;DHT22;35021;49.214;12.270;2023-09-19T10:13:13;21.70;62.70
49184;DHT22;35021;49.214;12.270;2023-09-19T10:15:50;21.70;62.70
49184;DHT22;35021;49.214;12.270;2023-09-19T10:18:29;21.70;62.70
49184;DHT22;35021;49.214;12.270;2023-09-19T10:20:59;21.70;62.70
49184;DHT22;35021;49.214;12.270;2023-09-19T10:23:31;21.70;62.70
49184;DHT22;35021;49.214;12.270;2023-09-19T10:26:01;21.70;62.50
49184;DHT22;35021;49.214;12.270;2023-09-19T10:28:30;21.80;62.50
49184;DHT22;35021;49.214;12.270;2023-09-19T10:30:57;21.80;62.50
49184;DHT22;35021;49.214;12.270;2023-09-19T10:33:25;21.80;62.40
49184;DHT22;35021;49.214;12.270;2023-09-19T10:35:53;21.80;62.30
49184;DHT22;35021;49.214;12.270;2023-09-19T10:38:24;21.80;62.20
49184;DHT22;35021;49.214;12.270;2023-09-19T10:40:53;21.80;62.10
49184;DHT22;35021;49.214;12.270;2023-09-19T10:43:21;21.80;62.10
49184;DHT22;35021;49.214;12.270;2023-09-19T10:45:50;21.90;62.10
49184;DHT22;35021;49.214;12.270;2023-09-19T10:48:20;21.80;62.00
49184;DHT22;35021;49.214;12.270;2023-09-19T10:51:02;21.90;61.90
49184;DHT22;35021;49.214;12.270;2023-09-19T10:53:59;21.90;61.90
49184;DHT22;35021;49.214;12.270;2023-09-19T10:56:31;21.90;61.80
49184;DHT22;35021;49.214;12.270;2023-09-19T10:59:14;21.90;61.70
49184;DHT22;35021;49.214;12.270;2023-09-19T11:04:31;21.90;61.60
49184;DHT22;35021;49.214;12.270;2023-09-19T11:07:06;21.90;61.60
49184;DHT22;35021;49.214;12.270;2023-09-19T11:09:55;21.90;61.60
49184;DHT22;35021;49.214;12.270;2023-09-19T11:15:04;22.00;61.50
49184;DHT22;35021;49.214;12.270;2023-09-19T11:17:35;21.90;61.50
49184;DHT22;35021;49.214;12.270;2023-09-19T11:30:36;22.00;61.30
49184;DHT22;35021;49.214;12.270;2023-09-19T11:33:16;22.00;61.20
49184;DHT22;35021;49.214;12.270;2023-09-19T11:36:06;22.00;61.20
49184;DHT22;35021;49.214;12.270;2023-09-19T11:46:54;22.00;61.00
49184;DHT22;35021;49.214;12.270;2023-09-19T11:49:30;22.00;61.00
49184;DHT22;35021;49.214;12.270;2023-09-19T11:52:00;22.00;61.00
49184;DHT22;35021;49.214;12.270;2023-09-19T11:54:32;22.00;61.00
49184;DHT22;35021;49.214;12.270;2023-09-19T11:57:00;22.00;61.00
49184;DHT22;35021;49.214;12.270;2023-09-19T11:59:29;22.00;61.00
49184;DHT22;35021;49.214;12.270;2023-09-19T12:02:07;22.00;60.90
49184;DHT22;35021;49.214;12.270;2023-09-19T12:09:48;22.00;60.70
49184;DHT22;35021;49.214;12.270;2023-09-19T12:12:46;22.00;60.70
49184;DHT22;35021;49.214;12.270;2023-09-19T12:15:14;22.00;60.60
49184;DHT22;35021;49.214;12.270;2023-09-19T12:17:41;22.00;60.60
49184;DHT22;35021;49.214;12.270;2023-09-19T12:20:09;22.10;60.70
49184;DHT22;35021;49.214;12.270;2023-09-19T12:25:07;22.00;60.60
49184;DHT22;35021;49.214;12.270;2023-09-19T12:27:42;22.10;60.60
49184;DHT22;35021;49.214;12.270;2023-09-19T12:30:11;22.10;60.60
49184;DHT22;35021;49.214;12.270;2023-09-19T12:32:53;22.10;60.60
49184;DHT22;35021;49.214;12.270;2023-09-19T12:35:28;22.00;60.50
49184;DHT22;35021;49.214;12.270;2023-09-19T12:37:57;22.00;60.50
49184;DHT22;35021;49.214;12.270;2023-09-19T12:40:24;22.00;60.60
49184;DHT22;35021;49.214;12.270;2023-09-19T12:43:00;22.00;60.60
49184;DHT22;35021;49.214;12.270;2023-09-19T12:45:31;22.00;61.40
49184;DHT22;35021;49.214;12.270;2023-09-19T12:51:09;22.00;60.90
49184;DHT22;35021;49.214;12.270;2023-09-19T12:53:43;22.00;61.00
49184;DHT22;35021;49.214;12.270;2023-09-19T12:56:14;21.90;60.90
49184;DHT22;35021;49.214;12.270;2023-09-19T12:58:52;21.90;61.00
49184;DHT22;35021;49.214;12.270;2023-09-19T13:01:23;21.90;61.00
49184;DHT22;35021;49.214;12.270;2023-09-19T13:06:47;22.00;61.00
49184;DHT22;35021;49.214;12.270;2023-09-19T13:09:17;22.00;60.90
49184;DHT22;35021;49.214;12.270;2023-09-19T13:11:44;22.00;60.90
49184;DHT22;35021;49.214;12.270;2023-09-19T13:19:42;22.10;61.40
49184;DHT22;35021;49.214;12.270;2023-09-19T13:22:40;22.10;60.60
49184;DHT22;35021;49.214;12.270;2023-09-19T13:25:17;22.10;60.50
49184;DHT22;35021;49.214;12.270;2023-09-19T13:30:15;22.10;60.40
49184;DHT22;35021;49.214;12.270;2023-09-19T13:32:42;22.10;60.30
49184;DHT22;35021;49.214;12.270;2023-09-19T13:35:10;22.10;60.30
49184;DHT22;35021;49.214;12.270;2023-09-19T13:37:39;22.10;60.30
49184;DHT22;35021;49.214;12.270;2023-09-19T13:40:10;22.10;60.30
49184;DHT22;35021;49.214;12.270;2023-09-19T13:42:38;22.10;60.20
49184;DHT22;35021;49.214;12.270;2023-09-19T13:45:07;22.10;60.20
49184;DHT22;35021;49.214;12.270;2023-09-19T13:47:34;22.10;60.20
49184;DHT22;35021;49.214;12.270;2023-09-19T13:50:03;22.10;60.20
49184;DHT22;35021;49.214;12.270;2023-09-19T13:52:32;22.10;60.20
49184;DHT22;35021;49.214;12.270;2023-09-19T13:54:59;22.10;60.20
49184;DHT22;35021;49.214;12.270;2023-09-19T13:57:26;22.10;60.80
49184;DHT22;35021;49.214;12.270;2023-09-19T13:59:53;22.10;60.90
49184;DHT22;35021;49.214;12.270;2023-09-19T14:02:22;22.10;60.20
49184;DHT22;35021;49.214;12.270;2023-09-19T14:04:52;22.10;60.00
49184;DHT22;35021;49.214;12.270;2023-09-19T14:07:19;22.10;60.00
49184;DHT22;35021;49.214;12.270;2023-09-19T14:09:47;22.20;60.00
49184;DHT22;35021;49.214;12.270;2023-09-19T14:12:15;22.20;60.60
49184;DHT22;35021;49.214;12.270;2023-09-19T14:14:42;22.20;60.00
49184;DHT22;35021;49.214;12.270;2023-09-19T14:17:09;22.20;59.90
49184;DHT22;35021;49.214;12.270;2023-09-19T14:19:37;22.20;59.80
49184;DHT22;35021;49.214;12.270;2023-09-19T14:22:04;22.20;59.70
49184;DHT22;35021;49.214;12.270;2023-09-19T14:24:35;22.20;59.70
49184;DHT22;35021;49.214;12.270;2023-09-19T14:27:03;22.20;59.70
49184;DHT22;35021;49.214;12.270;2023-09-19T14:29:32;22.30;59.60
49184;DHT22;35021;49.214;12.270;2023-09-19T14:32:00;22.30;59.60
49184;DHT22;35021;49.214;12.270;2023-09-19T14:34:27;22.30;59.50
49184;DHT22;35021;49.214;12.270;2023-09-19T14:36:54;22.30;59.40
49184;DHT22;35021;49.214;12.270;2023-09-19T14:39:21;22.30;59.30
49184;DHT22;35021;49.214;12.270;2023-09-19T14:41:48;22.30;59.20
49184;DHT22;35021;49.214;12.270;2023-09-19T14:44:16;22.30;59.10
49184;DHT22;35021;49.214;12.270;2023-09-19T14:46:43;22.30;59.10
49184;DHT22;35021;49.214;12.270;2023-09-19T14:49:13;22.30;59.80
49184;DHT22;35021;49.214;12.270;2023-09-19T14:51:43;22.30;59.00
49184;DHT22;35021;49.214;12.270;2023-09-19T14:54:16;22.30;59.00
49184;DHT22;35021;49.214;12.270;2023-09-19T14:56:43;22.40;59.00
49184;DHT22;35021;49.214;12.270;2023-09-19T14:59:11;22.40;58.90
49184;DHT22;35021;49.214;12.270;2023-09-19T15:01:39;22.40;58.90
49184;DHT22;35021;49.214;12.270;2023-09-19T15:04:08;22.40;58.90
49184;DHT22;35021;49.214;12.270;2023-09-19T15:06:35;22.30;58.80
49184;DHT22;35021;49.214;12.270;2023-09-19T15:09:02;22.30;58.80
49184;DHT22;35021;49.214;12.270;2023-09-19T15:11:31;22.30;58.80
49184;DHT22;35021;49.214;12.270;2023-09-19T15:13:58;22.30;58.90
49184;DHT22;35021;49.214;12.270;2023-09-19T15:16:25;22.30;58.90
49184;DHT22;35021;49.214;12.270;2023-09-19T15:18:53;22.30;58.90
49184;DHT22;35021;49.214;12.270;2023-09-19T15:21:20;22.30;58.90
49184;DHT22;35021;49.214;12.270;2023-09-19T15:23:47;22.20;58.70
49184;DHT22;35021;49.214;12.270;2023-09-19T15:26:15;22.20;58.80
49184;DHT22;35021;49.214;12.270;2023-09-19T15:28:47;22.20;58.80
49184;DHT22;35021;49.214;12.270;2023-09-19T15:31:17;22.20;58.80
49184;DHT22;35021;49.214;12.270;2023-09-19T15:33:44;22.20;58.80
49184;DHT22;35021;49.214;12.270;2023-09-19T15:36:14;22.20;58.70
49184;DHT22;35021;49.214;12.270;2023-09-19T15:41:30;22.30;58.70
49184;DHT22;35021;49.214;12.270;2023-09-19T15:43:59;22.20;58.60
49184;DHT22;35021;49.214;12.270;2023-09-19T15:46:30;22.20;58.60
49184;DHT22;35021;49.214;12.270;2023-09-19T15:48:57;22.20;58.60
49184;DHT22;35021;49.214;12.270;2023-09-19T15:51:24;22.30;58.70
49184;DHT22;35021;49.214;12.270;2023-09-19T15:53:52;22.20;58.60
49184;DHT22;35021;49.214;12.270;2023-09-19T15:56:21;22.20;58.60
49184;DHT22;35021;49.214;12.270;2023-09-19T15:58:54;22.20;58.70
49184;DHT22;35021;49.214;12.270;2023-09-19T16:01:22;22.20;58.70
49184;DHT22;35021;49.214;12.270;2023-09-19T16:03:51;22.20;58.60
49184;DHT22;35021;49.214;12.270;2023-09-19T16:06:29;22.20;58.70
49184;DHT22;35021;49.214;12.270;2023-09-19T16:08:59;22.20;58.70
49184;DHT22;35021;49.214;12.270;2023-09-19T16:11:27;22.20;58.70
49184;DHT22;35021;49.214;12.270;2023-09-19T16:13:55;22.20;58.70
49184;DHT22;35021;49.214;12.270;2023-09-19T16:16:23;22.20;58.60
49184;DHT22;35021;49.214;12.270;2023-09-19T16:18:56;22.20;58.50
49184;DHT22;35021;49.214;12.270;2023-09-19T16:21:25;22.20;58.50
49184;DHT22;35021;49.214;12.270;2023-09-19T16:23:57;22.20;58.70
49184;DHT22;35021;49.214;12.270;2023-09-19T16:26:28;22.20;58.40
49184;DHT22;35021;49.214;12.270;2023-09-19T16:28:57;22.20;58.30
49184;DHT22;35021;49.214;12.270;2023-09-19T16:31:29;22.20;58.30